Time;durP1;ratioP1;P1;durP2;ratioP2;P2;SDS_P1;SDS_P2;PMS_P1;PMS_P2;Temp;Humidity;BMP_temperature;BMP_pressure;BME280_temperature;BME280_humidity;BME280_pressure;Samples;Min_cycle;Max_cycle;Signal;HPM_P1;HPM_P2
2023/09/15 00:00:01;;;;;;;12.37;10.73;;;;;;;16.15;100.00;101898.75;5181559;28;20039;-71
2023/09/15 00:02:32;;;;;;;11.83;10.60;;;;;;;16.00;100.00;101891.84;5190424;28;20034;-73
2023/09/15 00:05:05;;;;;;;13.70;11.50;;;;;;;15.76;100.00;101890.69;5190737;28;20106;-72
2023/09/15 00:07:36;;;;;;;16.53;11.97;;;;;;;15.67;100.00;101886.88;5193423;28;20027;-72
2023/09/15 00:10:11;;;;;;;13.30;11.10;;;;;;;15.89;100.00;101896.03;5194932;28;20483;-71
2023/09/15 00:12:43;;;;;;;13.47;10.90;;;;;;;15.78;100.00;101887.97;5194688;28;20030;-71
2023/09/15 00:15:15;;;;;;;15.87;11.30;;;;;;;15.84;100.00;101879.63;5195050;28;20135;-71
2023/09/15 00:17:47;;;;;;;13.50;10.13;;;;;;;15.56;100.00;101892.00;5194407;28;20081;-70
2023/09/15 00:20:20;;;;;;;15.77;12.20;;;;;;;15.58;100.00;101882.19;5194810;28;20424;-71
2023/09/15 00:22:55;;;;;;;14.23;11.07;;;;;;;15.47;100.00;101881.09;5191685;28;20027;-71
2023/09/15 00:25:29;;;;;;;17.23;12.20;;;;;;;15.57;100.00;101881.31;5214652;28;20030;-71
2023/09/15 00:28:03;;;;;;;11.55;10.45;;;;;;;15.65;100.00;101877.34;5204284;28;20042;-72
2023/09/15 00:30:34;;;;;;;13.63;11.23;;;;;;;15.41;100.00;101881.47;5195659;28;20433;-72
2023/09/15 00:33:05;;;;;;;12.33;11.03;;;;;;;15.39;100.00;101872.81;5194074;28;20037;-72
2023/09/15 00:35:37;;;;;;;12.43;10.80;;;;;;;15.45;100.00;101867.13;5195199;28;20033;-72
2023/09/15 00:38:09;;;;;;;14.17;11.57;;;;;;;15.43;100.00;101862.91;5194945;28;20117;-72
2023/09/15 00:40:40;;;;;;;13.60;10.33;;;;;;;15.47;100.00;101875.81;5192945;28;20034;-72
2023/09/15 00:43:12;;;;;;;11.57;10.33;;;;;;;15.39;100.00;101875.47;5190621;28;20053;-72
2023/09/15 00:45:43;;;;;;;14.53;11.13;;;;;;;15.32;100.00;101874.16;5193943;28;20030;-71
2023/09/15 00:48:15;;;;;;;13.27;10.70;;;;;;;15.35;100.00;101882.72;5190373;28;20374;-72
2023/09/15 00:50:46;;;;;;;11.87;10.63;;;;;;;15.41;100.00;101867.44;5177568;28;20031;-72
2023/09/15 00:53:20;;;;;;;13.07;10.77;;;;;;;15.15;100.00;101865.50;5181791;28;20113;-72
2023/09/15 00:55:51;;;;;;;15.17;11.20;;;;;;;15.17;100.00;101868.06;5193253;28;20045;-72
2023/09/15 00:58:23;;;;;;;17.13;12.07;;;;;;;14.98;100.00;101870.06;5193850;28;20023;-72
2023/09/15 01:00:55;;;;;;;13.33;10.80;;;;;;;15.09;100.00;101866.75;5176746;28;20397;-72
2023/09/15 01:03:30;;;;;;;11.87;10.67;;;;;;;15.17;100.00;101868.91;5173696;28;20078;-71
2023/09/15 01:06:01;;;;;;;13.60;11.40;;;;;;;14.91;100.00;101866.09;5181449;28;20030;-72
2023/09/15 01:08:34;;;;;;;13.70;11.27;;;;;;;15.02;100.00;101854.03;5185239;28;20102;-72
2023/09/15 01:11:05;;;;;;;13.50;11.00;;;;;;;15.18;100.00;101857.41;5177453;28;20035;-71
2023/09/15 01:13:37;;;;;;;12.80;11.50;;;;;;;15.11;100.00;101861.38;5192642;28;20037;-71
2023/09/15 01:16:23;;;;;;;13.70;10.93;;;;;;;14.92;100.00;101817.69;5194090;23;20063;-79
2023/09/15 01:19:00;;;;;;;14.00;10.93;;;;;;;14.92;100.00;101828.25;5177017;28;20378;-78
2023/09/15 01:22:08;;;;;;;14.27;11.37;;;;;;;15.20;100.00;101858.13;5185471;28;20026;-79
2023/09/15 01:24:54;;;;;;;12.30;11.00;;;;;;;14.85;100.00;101805.84;5179065;28;20027;-79
2023/09/15 01:28:12;;;;;;;13.90;11.47;;;;;;;14.90;100.00;101838.03;5191019;28;20086;-79
2023/09/15 01:40:14;;;;;;;13.50;12.05;;;;;;;14.64;100.00;101840.47;5172010;28;20489;-71
2023/09/15 01:42:48;;;;;;;14.13;12.63;;;;;;;14.65;100.00;101834.25;5172358;28;20045;-71
2023/09/15 01:45:20;;;;;;;13.37;11.87;;;;;;;14.70;100.00;101836.59;5173436;28;20030;-71
2023/09/15 01:47:52;;;;;;;15.80;12.00;;;;;;;14.29;100.00;101831.13;5173605;28;20043;-72
2023/09/15 01:50:25;;;;;;;14.07;12.57;;;;;;;14.44;100.00;101839.91;5173280;28;20035;-71
2023/09/15 01:52:56;;;;;;;14.10;12.67;;;;;;;14.32;100.00;101830.94;5172397;28;20035;-71
2023/09/15 01:55:31;;;;;;;15.57;12.53;;;;;;;14.45;100.00;101824.94;5172053;28;20432;-71
2023/09/15 01:58:03;;;;;;;14.47;12.97;;;;;;;14.30;100.00;101837.22;5173703;28;20038;-71
2023/09/15 02:00:36;;;;;;;14.67;12.10;;;;;;;14.36;100.00;101821.06;5173411;28;20031;-71
2023/09/15 02:03:07;;;;;;;18.17;13.40;;;;;;;14.37;100.00;101836.78;5173078;28;20704;-71
2023/09/15 02:05:38;;;;;;;15.30;13.47;;;;;;;14.12;100.00;101834.78;5173369;28;20031;-71
2023/09/15 02:08:10;;;;;;;14.80;13.17;;;;;;;14.22;100.00;101832.44;5172811;28;20509;-71
2023/09/15 02:10:41;;;;;;;14.67;13.00;;;;;;;14.30;100.00;101826.69;5170697;28;20035;-72
2023/09/15 02:13:12;;;;;;;14.40;12.67;;;;;;;14.24;100.00;101828.75;5172776;28;20113;-71
2023/09/15 02:15:44;;;;;;;15.17;13.03;;;;;;;14.28;100.00;101832.91;5173419;28;20058;-71
2023/09/15 02:18:16;;;;;;;14.70;13.00;;;;;;;14.20;100.00;101822.00;5172532;28;20121;-71
2023/09/15 02:20:57;;;;;;;14.43;12.73;;;;;;;14.38;100.00;101837.63;5171629;28;20058;-71
2023/09/15 02:23:28;;;;;;;15.27;13.67;;;;;;;14.10;100.00;101832.22;5171738;28;20088;-71
2023/09/15 02:26:03;;;;;;;14.80;12.73;;;;;;;14.18;100.00;101829.13;5172344;28;20034;-71
2023/09/15 02:28:34;;;;;;;14.53;13.03;;;;;;;14.11;100.00;101833.91;5171885;28;20038;-71
2023/09/15 02:31:06;;;;;;;17.13;13.23;;;;;;;14.05;100.00;101815.00;5172088;28;20037;-71
2023/09/15 02:33:37;;;;;;;13.97;12.47;;;;;;;13.95;100.00;101818.16;5172363;28;20133;-71
2023/09/15 02:36:08;;;;;;;14.67;13.13;;;;;;;13.91;100.00;101816.66;5171166;28;20065;-71
2023/09/15 02:38:40;;;;;;;14.23;12.10;;;;;;;13.99;100.00;101821.47;5172296;28;20050;-71
2023/09/15 02:41:11;;;;;;;14.00;12.63;;;;;;;13.90;100.00;101814.97;5171763;28;20034;-71
2023/09/15 02:43:45;;;;;;;13.80;12.13;;;;;;;14.02;100.00;101816.03;5171937;28;20080;-71
2023/09/15 02:46:16;;;;;;;13.55;12.15;;;;;;;13.91;100.00;101817.50;5170391;28;20624;-71
2023/09/15 02:48:48;;;;;;;13.00;11.80;;;;;;;13.96;100.00;101819.88;5171927;28;20035;-72
2023/09/15 02:51:19;;;;;;;12.67;11.37;;;;;;;13.74;100.00;101810.59;5171856;28;20101;-71
2023/09/15 02:53:50;;;;;;;18.80;13.10;;;;;;;13.84;100.00;101810.88;5170702;28;20045;-71
2023/09/15 02:56:23;;;;;;;12.43;10.93;;;;;;;13.87;100.00;101810.72;5170952;28;20026;-71
2023/09/15 02:58:55;;;;;;;13.23;11.83;;;;;;;13.68;100.00;101818.84;5171443;28;20462;-71
2023/09/15 03:01:26;;;;;;;14.30;12.20;;;;;;;13.74;100.00;101807.97;5171524;28;20073;-70
2023/09/15 03:03:57;;;;;;;14.03;12.60;;;;;;;13.58;100.00;101815.88;5170649;28;20034;-71
2023/09/15 03:06:29;;;;;;;13.40;12.00;;;;;;;13.62;100.00;101806.03;5171313;28;20114;-71
2023/09/15 03:09:00;;;;;;;13.90;12.33;;;;;;;13.59;100.00;101807.06;5171330;28;20030;-72
2023/09/15 03:11:32;;;;;;;16.23;12.23;;;;;;;13.62;100.00;101809.50;5171431;28;20544;-72
2023/09/15 03:14:03;;;;;;;13.37;12.07;;;;;;;13.72;100.00;101806.38;5170974;28;20023;-72
2023/09/15 03:16:35;;;;;;;13.23;11.87;;;;;;;13.50;100.00;101804.91;5172270;28;20023;-70
2023/09/15 03:19:06;;;;;;;17.33;12.60;;;;;;;13.51;100.00;101811.91;5158105;28;20119;-72
2023/09/15 03:21:38;;;;;;;12.70;11.40;;;;;;;13.47;100.00;101803.31;5150097;28;20406;-71
2023/09/15 03:24:09;;;;;;;16.13;12.03;;;;;;;13.57;100.00;101795.78;5151729;28;20030;-72
2023/09/15 03:26:41;;;;;;;14.00;12.10;;;;;;;13.39;100.00;101792.38;5151152;28;20058;-70
2023/09/15 03:29:12;;;;;;;16.70;12.37;;;;;;;13.42;100.00;101787.78;5149641;29;20127;-71
2023/09/15 03:31:43;;;;;;;14.07;12.10;;;;;;;13.41;100.00;101794.00;5151334;29;20031;-71
2023/09/15 03:34:14;;;;;;;13.73;12.27;;;;;;;13.21;100.00;101787.22;5151366;28;20035;-71
2023/09/15 03:36:46;;;;;;;13.70;12.37;;;;;;;13.42;100.00;101786.94;5151180;29;20046;-71
2023/09/15 03:39:17;;;;;;;16.03;12.73;;;;;;;13.39;100.00;101789.72;5151170;28;20059;-71
2023/09/15 03:41:48;;;;;;;13.63;12.00;;;;;;;13.47;100.00;101790.16;5132554;29;20081;-70
2023/09/15 03:44:22;;;;;;;14.33;11.83;;;;;;;13.38;100.00;101793.31;5168078;28;20051;-70
2023/09/15 03:46:53;;;;;;;15.98;13.25;;;;;;;13.29;100.00;101789.41;5172778;28;20055;-71
2023/09/15 03:49:25;;;;;;;15.03;12.67;;;;;;;13.26;100.00;101793.09;5157702;28;20137;-71
2023/09/15 03:51:56;;;;;;;15.23;12.77;;;;;;;13.03;100.00;101784.69;5170953;28;20035;-71
2023/09/15 03:54:28;;;;;;;12.67;11.30;;;;;;;13.26;100.00;101789.59;5170853;28;20038;-71
2023/09/15 03:56:59;;;;;;;14.10;11.50;;;;;;;13.24;100.00;101791.47;5180654;28;20113;-71
2023/09/15 03:59:31;;;;;;;13.43;12.03;;;;;;;13.05;100.00;101774.09;5170476;28;20031;-71
2023/09/15 04:02:03;;;;;;;15.00;11.27;;;;;;;13.26;100.00;101779.94;5172300;28;20061;-71
2023/09/15 04:04:35;;;;;;;12.93;11.33;;;;;;;13.15;100.00;101782.28;5169824;28;20054;-70
2023/09/15 04:07:06;;;;;;;14.67;11.97;;;;;;;13.09;100.00;101786.09;5170730;28;20070;-71
2023/09/15 04:09:37;;;;;;;13.03;11.63;;;;;;;13.19;100.00;101779.41;5171676;28;20110;-71
2023/09/15 04:12:08;;;;;;;13.70;11.47;;;;;;;13.02;100.00;101776.88;5174324;28;20058;-71
2023/09/15 04:14:40;;;;;;;14.43;11.63;;;;;;;12.97;100.00;101777.13;5176526;28;20039;-71
2023/09/15 04:17:11;;;;;;;13.50;12.00;;;;;;;12.99;100.00;101772.63;5152666;28;20031;-70
2023/09/15 04:19:43;;;;;;;14.13;12.73;;;;;;;12.80;100.00;101770.16;5157139;28;20035;-71
2023/09/15 04:22:14;;;;;;;14.53;12.70;;;;;;;12.82;100.00;101776.19;5170878;28;20037;-70
2023/09/15 04:24:45;;;;;;;13.30;11.83;;;;;;;12.92;100.00;101771.28;5171236;28;20049;-71
2023/09/15 04:27:17;;;;;;;13.23;11.90;;;;;;;12.90;100.00;101773.13;5169827;28;20045;-71
2023/09/15 04:29:55;;;;;;;15.90;13.03;;;;;;;12.93;100.00;101770.34;5170001;28;20042;-71
2023/09/15 04:32:26;;;;;;;12.87;11.63;;;;;;;12.77;100.00;101768.56;5177197;28;20515;-70
2023/09/15 04:34:58;;;;;;;13.70;12.27;;;;;;;12.89;100.00;101766.19;5170980;28;20035;-71
2023/09/15 04:37:29;;;;;;;15.50;11.80;;;;;;;12.86;100.00;101763.72;5179093;28;20105;-71
2023/09/15 04:40:03;;;;;;;15.60;11.63;;;;;;;12.83;100.00;101773.47;5168093;28;20054;-72
2023/09/15 04:42:34;;;;;;;13.15;11.85;;;;;;;12.83;100.00;101760.34;5170374;28;20039;-71
2023/09/15 04:45:06;;;;;;;13.77;12.37;;;;;;;12.88;100.00;101773.22;5168256;28;20038;-71
2023/09/15 04:47:38;;;;;;;16.30;12.90;;;;;;;12.77;100.00;101767.72;5165788;28;20031;-70
2023/09/15 04:50:10;;;;;;;14.30;12.10;;;;;;;12.85;100.00;101764.66;5173051;28;20049;-70
2023/09/15 04:52:41;;;;;;;20.00;12.67;;;;;;;12.58;100.00;101766.91;5170850;28;20377;-71
2023/09/15 04:55:13;;;;;;;17.97;12.93;;;;;;;12.77;100.00;101767.72;5175375;28;20019;-71
2023/09/15 04:57:45;;;;;;;17.33;12.57;;;;;;;12.62;100.00;101767.59;5166910;28;20027;-70
2023/09/15 05:00:23;;;;;;;13.97;11.73;;;;;;;12.70;100.00;101780.34;5157084;28;20063;-71
2023/09/15 05:02:56;;;;;;;15.07;12.50;;;;;;;12.51;100.00;101768.19;5156392;28;20023;-72
2023/09/15 05:05:28;;;;;;;14.63;11.40;;;;;;;12.62;100.00;101779.91;5168240;28;20504;-71
2023/09/15 05:08:00;;;;;;;15.50;12.37;;;;;;;12.63;100.00;101787.72;5172258;28;20077;-71
2023/09/15 05:10:31;;;;;;;14.20;12.70;;;;;;;12.49;100.00;101785.81;5170514;28;20035;-72
2023/09/15 05:13:05;;;;;;;15.90;11.97;;;;;;;12.69;100.00;101787.38;5169815;28;20105;-71
2023/09/15 05:15:37;;;;;;;14.73;13.17;;;;;;;12.55;100.00;101779.41;5168980;28;20022;-71
2023/09/15 05:18:08;;;;;;;16.43;12.27;;;;;;;12.61;100.00;101791.34;5170914;28;20315;-72
2023/09/15 05:20:40;;;;;;;13.13;11.73;;;;;;;12.59;100.00;101791.41;5170738;28;20064;-72
2023/09/15 05:23:11;;;;;;;14.07;12.57;;;;;;;12.60;100.00;101792.28;5170538;28;20031;-71
2023/09/15 05:25:42;;;;;;;21.67;12.60;;;;;;;12.55;100.00;101789.91;5169919;28;20026;-71
2023/09/15 05:28:14;;;;;;;20.37;12.87;;;;;;;12.62;100.00;101796.50;5171271;28;20789;-71
2023/09/15 05:30:46;;;;;;;15.67;12.17;;;;;;;12.74;100.00;101794.16;5171743;28;20147;-71
2023/09/15 05:33:17;;;;;;;16.47;12.77;;;;;;;12.55;100.00;101790.72;5175977;28;20195;-71
2023/09/15 05:35:49;;;;;;;14.33;11.70;;;;;;;12.66;100.00;101787.53;5171636;28;20119;-71
2023/09/15 05:38:20;;;;;;;15.90;11.43;;;;;;;12.80;100.00;101793.81;5176608;28;20051;-71
2023/09/15 05:40:52;;;;;;;15.73;12.07;;;;;;;12.68;100.00;101783.06;5171423;28;20110;-71
2023/09/15 05:43:23;;;;;;;20.37;12.83;;;;;;;12.78;100.00;101786.03;5171930;28;20045;-72
2023/09/15 05:45:56;;;;;;;14.67;11.40;;;;;;;12.78;100.00;101782.53;5172513;28;20106;-71
2023/09/15 05:48:27;;;;;;;13.77;10.70;;;;;;;12.81;100.00;101782.41;5171534;28;20031;-70
2023/09/15 05:50:58;;;;;;;14.10;11.20;;;;;;;12.83;100.00;101785.75;5171147;28;20038;-70
2023/09/15 05:53:31;;;;;;;16.20;11.00;;;;;;;12.84;100.00;101790.09;5168042;28;20110;-71
2023/09/15 05:56:03;;;;;;;16.07;11.27;;;;;;;12.75;100.00;101796.72;5170421;28;20039;-70
2023/09/15 05:58:35;;;;;;;12.50;10.40;;;;;;;12.85;100.00;101796.19;5172464;28;20034;-70
2023/09/15 06:01:06;;;;;;;12.50;10.57;;;;;;;12.95;100.00;101787.72;5171594;28;20027;-71
2023/09/15 06:03:37;;;;;;;12.17;10.47;;;;;;;12.91;100.00;101795.88;5179647;28;20050;-71
2023/09/15 06:06:09;;;;;;;13.27;10.40;;;;;;;13.04;100.00;101793.41;5190685;28;20041;-69
2023/09/15 06:08:40;;;;;;;20.40;11.07;;;;;;;13.06;100.00;101789.78;5190408;28;20045;-71
2023/09/15 06:11:15;;;;;;;12.47;10.43;;;;;;;13.06;100.00;101795.03;5190120;28;20177;-70
2023/09/15 06:13:47;;;;;;;;;;;;;;;13.55;100.00;101798.50;5191418;28;20405;-70
2023/09/15 06:16:18;;;;;;;12.57;10.40;;;;;;;13.10;100.00;101793.09;5191059;28;20000;-70
2023/09/15 06:18:49;;;;;;;15.10;11.07;;;;;;;13.23;100.00;101795.03;5191007;28;20109;-69
2023/09/15 06:21:20;;;;;;;12.97;10.53;;;;;;;13.33;100.00;101801.47;5190663;28;20030;-68
2023/09/15 06:23:52;;;;;;;11.60;9.40;;;;;;;13.30;100.00;101791.97;5190627;28;20423;-69
2023/09/15 06:26:23;;;;;;;13.60;10.17;;;;;;;13.27;100.00;101797.41;5190436;28;20073;-70
2023/09/15 06:28:56;;;;;;;15.30;10.37;;;;;;;13.24;100.00;101791.47;5192192;28;20089;-70
2023/09/15 06:31:27;;;;;;;12.73;8.73;;;;;;;13.42;100.00;101797.47;5191916;28;20028;-67
2023/09/15 06:33:59;;;;;;;15.13;9.47;;;;;;;13.47;100.00;101792.78;5191562;28;20470;-68
2023/09/15 06:36:30;;;;;;;12.30;9.57;;;;;;;13.54;100.00;101778.34;5185565;28;20073;-72
2023/09/15 06:39:02;;;;;;;13.63;9.80;;;;;;;13.60;100.00;101786.84;5186282;28;20090;-70
2023/09/15 06:41:33;;;;;;;12.03;9.07;;;;;;;13.70;100.00;101787.19;5190906;28;20042;-70
2023/09/15 06:44:04;;;;;;;13.00;9.67;;;;;;;13.59;100.00;101782.53;5191374;28;20042;-69
2023/09/15 06:46:36;;;;;;;13.40;9.27;;;;;;;13.72;100.00;101794.03;5191607;28;20027;-69
2023/09/15 06:49:08;;;;;;;13.13;10.13;;;;;;;13.82;100.00;101780.34;5190356;28;20113;-69
2023/09/15 06:51:40;;;;;;;12.37;9.47;;;;;;;13.88;100.00;101772.06;5191507;28;20036;-68
2023/09/15 06:54:12;;;;;;;16.27;9.57;;;;;;;13.98;100.00;101780.28;5189874;28;20053;-69
2023/09/15 06:56:43;;;;;;;10.37;9.10;;;;;;;14.02;100.00;101776.50;5190054;28;20104;-69
2023/09/15 06:59:14;;;;;;;9.80;8.80;;;;;;;14.12;100.00;101779.47;5190037;28;20030;-69
2023/09/15 07:01:46;;;;;;;12.63;9.00;;;;;;;14.18;100.00;101780.84;5190123;28;20041;-70
2023/09/15 07:04:17;;;;;;;13.33;9.27;;;;;;;14.17;100.00;101772.13;5189762;28;20030;-68
2023/09/15 07:06:48;;;;;;;12.77;9.63;;;;;;;14.24;100.00;101776.06;5188868;28;20065;-69
2023/09/15 07:09:20;;;;;;;12.40;8.67;;;;;;;14.36;100.00;101778.91;5188521;28;20501;-70
2023/09/15 07:11:51;;;;;;;20.10;9.40;;;;;;;14.32;100.00;101772.97;5188575;28;20034;-71
2023/09/15 07:14:23;;;;;;;13.30;9.17;;;;;;;14.51;100.00;101782.38;5191315;28;20026;-68
2023/09/15 07:16:54;;;;;;;11.57;8.47;;;;;;;14.56;100.00;101766.25;5189534;28;20018;-72
2023/09/15 07:19:25;;;;;;;11.47;8.13;;;;;;;14.63;100.00;101770.22;5168427;28;20030;-70
2023/09/15 07:21:57;;;;;;;9.80;8.23;;;;;;;14.68;100.00;101762.88;5163129;28;20039;-69
2023/09/15 07:24:28;;;;;;;11.23;7.90;;;;;;;14.80;100.00;101766.50;5164822;28;20073;-71
2023/09/15 07:27:01;;;;;;;9.57;7.60;;;;;;;14.91;100.00;101760.59;5165132;28;20027;-71
2023/09/15 07:29:32;;;;;;;9.90;7.90;;;;;;;14.91;100.00;101757.97;5160945;28;20429;-68
2023/09/15 07:32:05;;;;;;;17.03;8.07;;;;;;;15.10;100.00;101751.50;5164090;28;20042;-68
2023/09/15 07:34:36;;;;;;;12.57;8.47;;;;;;;15.23;100.00;101760.34;5149499;28;20024;-70
2023/09/15 07:37:08;;;;;;;12.23;7.77;;;;;;;15.34;100.00;101758.78;5148996;29;20042;-69
2023/09/15 07:39:40;;;;;;;9.00;7.30;;;;;;;15.44;100.00;101746.66;5149315;28;20178;-68
2023/09/15 07:42:11;;;;;;;10.63;6.97;;;;;;;15.64;100.00;101754.19;5149625;29;20041;-69
2023/09/15 07:44:42;;;;;;;10.67;6.93;;;;;;;16.03;100.00;101749.81;5149715;29;20043;-69
2023/09/15 07:47:14;;;;;;;12.90;7.07;;;;;;;16.17;100.00;101742.72;5149615;28;20039;-70
2023/09/15 07:49:45;;;;;;;10.20;6.83;;;;;;;16.57;100.00;101750.50;5189127;28;20045;-70
2023/09/15 07:52:18;;;;;;;9.90;7.83;;;;;;;17.07;100.00;101748.72;5177264;28;20690;-72
2023/09/15 07:54:49;;;;;;;9.97;6.43;;;;;;;17.56;100.00;101748.72;5188690;28;20381;-72
2023/09/15 07:57:21;;;;;;;11.13;6.60;;;;;;;18.25;100.00;101751.50;5189266;28;20030;-71
2023/09/15 07:59:52;;;;;;;10.20;6.50;;;;;;;18.59;100.00;101746.19;5190129;28;20033;-69
2023/09/15 08:02:24;;;;;;;12.80;6.30;;;;;;;19.34;100.00;101739.31;5189962;28;20023;-69
2023/09/15 08:04:55;;;;;;;9.70;6.60;;;;;;;20.28;100.00;101737.63;5189684;28;20066;-68
2023/09/15 08:07:26;;;;;;;7.73;5.23;;;;;;;21.48;100.00;101747.47;5189806;28;20084;-69
2023/09/15 08:09:58;;;;;;;7.35;5.53;;;;;;;21.81;100.00;101743.66;5188754;28;20037;-69
2023/09/15 08:12:30;;;;;;;7.70;5.40;;;;;;;22.58;99.55;101734.59;5190048;28;20026;-72
2023/09/15 08:15:01;;;;;;;6.45;4.53;;;;;;;23.55;83.84;101741.16;5189505;28;20599;-71
2023/09/15 08:17:33;;;;;;;7.13;4.60;;;;;;;24.11;82.48;101737.28;5189800;28;20062;-70
2023/09/15 08:20:04;;;;;;;10.27;5.25;;;;;;;24.16;77.47;101738.50;5184255;28;20034;-71
2023/09/15 08:22:38;;;;;;;8.40;4.60;;;;;;;24.44;68.66;101747.31;5169557;28;20026;-71
2023/09/15 08:25:10;;;;;;;8.35;4.70;;;;;;;25.13;70.52;101739.06;5168149;28;20069;-72
2023/09/15 08:27:44;;;;;;;6.80;5.00;;;;;;;25.61;66.33;101741.03;5170129;28;20057;-70
2023/09/15 08:30:16;;;;;;;10.90;4.90;;;;;;;25.55;64.26;101741.75;5173423;28;20462;-70
2023/09/15 08:32:48;;;;;;;8.70;4.95;;;;;;;26.46;60.10;101742.47;5172796;28;20034;-72
2023/09/15 08:35:19;;;;;;;8.70;4.78;;;;;;;27.37;53.21;101743.63;5173058;28;20584;-70
2023/09/15 08:37:51;;;;;;;8.43;4.93;;;;;;;27.14;50.42;101757.97;5173749;28;20039;-72
2023/09/15 08:40:22;;;;;;;7.43;5.13;;;;;;;27.98;46.97;101749.09;5170789;28;20042;-70
2023/09/15 08:42:53;;;;;;;7.55;4.57;;;;;;;28.03;48.29;101742.09;5173819;28;20042;-71
2023/09/15 08:45:26;;;;;;;7.15;4.20;;;;;;;29.04;45.05;101740.72;5172856;28;20038;-72
2023/09/15 08:47:59;;;;;;;7.25;4.25;;;;;;;28.90;46.07;101740.59;5172838;28;20035;-72
2023/09/15 08:50:31;;;;;;;10.55;4.30;;;;;;;29.23;43.65;101731.97;5172868;28;20027;-72
2023/09/15 08:53:04;;;;;;;6.57;4.32;;;;;;;30.04;41.49;101728.09;5172396;28;20453;-71
2023/09/15 08:55:35;;;;;;;7.32;4.20;;;;;;;29.78;40.27;101726.91;5171387;28;20035;-72
2023/09/15 08:58:08;;;;;;;7.32;4.05;;;;;;;30.14;39.23;101731.25;5172745;28;20022;-72
2023/09/15 09:00:42;;;;;;;11.30;3.95;;;;;;;30.12;39.91;101736.00;5172298;28;20038;-72
2023/09/15 09:03:13;;;;;;;6.90;4.75;;;;;;;30.38;37.96;101737.16;5155106;28;20122;-71
2023/09/15 09:05:47;;;;;;;6.80;4.53;;;;;;;30.94;37.58;101725.41;5171095;28;20109;-69
2023/09/15 09:08:21;;;;;;;7.50;3.65;;;;;;;30.70;38.87;101720.38;5171859;28;20035;-70
2023/09/15 09:10:53;;;;;;;8.02;4.22;;;;;;;31.83;34.64;101733.19;5170648;28;20019;-72
2023/09/15 09:13:25;;;;;;;8.80;4.10;;;;;;;32.83;33.73;101732.84;5172427;28;20027;-71
2023/09/15 09:15:56;;;;;;;9.25;3.97;;;;;;;32.85;33.31;101732.63;5171381;28;20023;-73
2023/09/15 09:18:28;;;;;;;6.95;3.92;;;;;;;31.86;34.69;101726.50;5172726;28;20034;-71
2023/09/15 09:21:02;;;;;;;7.03;3.80;;;;;;;33.16;33.14;101724.69;5172534;28;20038;-71
2023/09/15 09:23:34;;;;;;;6.18;3.63;;;;;;;33.66;31.89;101731.91;5172939;28;20393;-70
2023/09/15 09:26:12;;;;;;;8.65;3.97;;;;;;;33.11;34.30;101729.94;5169798;28;20023;-70
2023/09/15 09:28:43;;;;;;;6.43;3.88;;;;;;;32.07;35.08;101724.56;5172338;28;20035;-71
2023/09/15 09:31:15;;;;;;;6.45;3.75;;;;;;;32.53;33.17;101725.34;5170988;28;20493;-70
2023/09/15 09:33:48;;;;;;;6.00;3.28;;;;;;;33.07;31.86;101730.38;5171101;28;20026;-70
2023/09/15 09:36:20;;;;;;;7.78;3.42;;;;;;;33.77;30.21;101727.59;5172281;28;20398;-71
2023/09/15 09:38:52;;;;;;;3.55;2.70;;;;;;;32.75;32.88;101730.41;5171900;28;20058;-71
2023/09/15 09:41:28;;;;;;;4.75;3.13;;;;;;;34.38;29.55;101728.69;5170166;28;20150;-72
2023/09/15 09:44:03;;;;;;;4.13;3.00;;;;;;;33.54;31.16;101715.50;5171653;28;20027;-72
2023/09/15 09:46:36;;;;;;;6.35;2.80;;;;;;;34.51;29.34;101714.03;5172692;28;20027;-71
2023/09/15 09:49:08;;;;;;;5.38;2.88;;;;;;;33.05;30.24;101713.47;5171733;28;20125;-72
2023/09/15 09:51:39;;;;;;;6.32;2.50;;;;;;;33.63;30.15;101709.75;5171925;28;20038;-72
2023/09/15 09:54:14;;;;;;;7.80;3.25;;;;;;;33.04;29.43;101714.50;5170659;28;20040;-72
2023/09/15 09:56:51;;;;;;;5.68;3.17;;;;;;;32.78;31.45;101715.59;5171599;28;20098;-71
2023/09/15 09:59:22;;;;;;;7.60;4.07;;;;;;;34.00;29.00;101708.91;5172151;28;20034;-73
2023/09/15 10:01:54;;;;;;;4.32;2.83;;;;;;;33.65;30.53;101705.78;5172300;28;20406;-72
2023/09/15 10:04:25;;;;;;;6.00;2.78;;;;;;;33.52;30.67;101714.06;5169602;28;20441;-72
2023/09/15 10:06:56;;;;;;;4.47;3.35;;;;;;;34.79;29.86;101709.03;5171721;28;20031;-73
2023/09/15 10:09:30;;;;;;;5.10;2.58;;;;;;;34.57;28.94;101706.84;5168985;28;20026;-72
2023/09/15 10:12:02;;;;;;;8.25;2.70;;;;;;;34.62;29.53;101705.09;5171396;28;20046;-71
2023/09/15 10:14:34;;;;;;;4.22;3.05;;;;;;;34.67;28.10;101700.81;5172244;28;20485;-71
2023/09/15 10:17:05;;;;;;;5.72;2.45;;;;;;;34.73;27.18;101698.03;5171256;28;21039;-73
2023/09/15 10:19:39;;;;;;;7.90;3.00;;;;;;;34.15;28.85;101694.91;5171574;28;20039;-72
2023/09/15 10:22:11;;;;;;;4.03;3.10;;;;;;;34.41;28.39;101682.00;5179313;28;20412;-71
2023/09/15 10:24:47;;;;;;;4.83;2.77;;;;;;;33.96;29.99;101681.38;5190710;28;20026;-71
2023/09/15 10:27:19;;;;;;;8.20;3.58;;;;;;;33.22;29.07;101680.34;5193346;28;20030;-72
2023/09/15 10:29:51;;;;;;;7.13;3.30;;;;;;;33.23;30.04;101670.34;5195275;28;20485;-72
2023/09/15 10:32:22;;;;;;;6.40;3.25;;;;;;;33.27;31.03;101676.97;5194205;28;20045;-72
2023/09/15 10:34:53;;;;;;;4.20;3.07;;;;;;;33.63;29.59;101671.75;5193869;28;20026;-72
2023/09/15 10:37:25;;;;;;;6.40;3.17;;;;;;;33.08;30.84;101672.31;5193822;28;20037;-73
2023/09/15 10:39:59;;;;;;;6.35;3.13;;;;;;;33.19;30.76;101661.81;5173857;28;20066;-75
2023/09/15 10:42:33;;;;;;;7.45;3.75;;;;;;;32.15;33.15;101659.31;5172414;28;20084;-74
2023/09/15 10:45:12;;;;;;;4.20;3.17;;;;;;;33.73;30.46;101658.47;5172212;28;20035;-72
2023/09/15 10:47:54;;;;;;;7.43;3.20;;;;;;;32.79;30.60;101663.84;5181044;28;20039;-71
2023/09/15 10:50:39;;;;;;;5.78;3.17;;;;;;;33.49;30.45;101657.50;5151284;28;20039;-72
2023/09/15 10:53:11;;;;;;;7.63;3.78;;;;;;;31.42;33.63;101648.56;5149652;28;20023;-73
2023/09/15 10:55:43;;;;;;;5.53;3.45;;;;;;;32.65;31.63;101646.03;5183006;28;20064;-74
2023/09/15 10:58:14;;;;;;;8.57;3.78;;;;;;;30.94;34.96;101645.13;5164064;28;20026;-73
2023/09/15 11:00:47;;;;;;;9.80;3.28;;;;;;;29.98;36.51;101651.41;5171320;28;20022;-72
2023/09/15 11:03:19;;;;;;;6.45;3.00;;;;;;;29.79;35.99;101644.91;5170149;28;20023;-73
2023/09/15 11:05:52;;;;;;;5.07;3.63;;;;;;;29.49;37.89;101639.78;5169012;28;20030;-73
2023/09/15 11:08:25;;;;;;;6.60;3.10;;;;;;;29.68;38.75;101633.66;5169664;28;20497;-73
2023/09/15 11:10:58;;;;;;;5.82;3.20;;;;;;;29.47;39.35;101621.94;5168464;28;20059;-73
2023/09/15 11:13:29;;;;;;;7.93;3.75;;;;;;;31.01;35.27;101621.59;5170823;28;20026;-73
2023/09/15 11:16:01;;;;;;;4.35;3.35;;;;;;;30.71;34.71;101618.47;5169203;28;20065;-74
2023/09/15 11:18:36;;;;;;;8.95;2.92;;;;;;;29.77;39.33;101631.63;5170500;28;20033;-70
2023/09/15 11:21:07;;;;;;;5.47;3.40;;;;;;;29.28;39.53;101617.25;5185931;28;20093;-70
2023/09/15 11:23:43;;;;;;;4.72;3.10;;;;;;;29.74;37.75;101623.09;5176583;28;20039;-72
2023/09/15 11:26:15;;;;;;;5.68;3.15;;;;;;;29.57;38.66;101626.09;5168446;28;20031;-69
2023/09/15 11:28:46;;;;;;;7.38;3.15;;;;;;;29.58;37.82;101607.03;5186470;28;20037;-70
2023/09/15 11:31:17;;;;;;;6.28;2.95;;;;;;;29.55;37.49;101620.09;5189770;28;20042;-69
2023/09/15 11:33:49;;;;;;;5.63;3.08;;;;;;;29.49;38.32;101612.78;5190156;28;20031;-70
2023/09/15 11:36:21;;;;;;;4.97;2.70;;;;;;;28.69;38.27;101609.38;5189808;28;20038;-72
2023/09/15 11:38:52;;;;;;;5.40;2.70;;;;;;;28.57;39.17;101612.63;5188916;28;20046;-70
2023/09/15 11:41:33;;;;;;;5.28;3.03;;;;;;;28.38;40.17;101614.91;5188104;28;20041;-72